Time;durP1;ratioP1;P1;durP2;ratioP2;P2;SDS_P1;SDS_P2;PMS_P1;PMS_P2;Temp;Humidity;BMP_temperature;BMP_pressure;BME280_temperature;BME280_humidity;BME280_pressure;Samples;Min_cycle;Max_cycle;Signal;HPM_P1;HPM_P2
2022/12/26 00:03:14;;;;;;;3.50;2.60;;;;;;;19.48;43.29;100948.19;16122836;19;130887;-47
2022/12/26 00:08:36;;;;;;;4.95;2.38;;;;;;;19.44;43.20;100935.94;16122402;19;130028;-48
2022/12/26 00:14:02;;;;;;;3.30;2.10;;;;;;;19.42;43.73;100957.53;16120130;19;130029;-46
2022/12/26 00:19:24;;;;;;;2.97;1.95;;;;;;;19.40;43.69;100985.50;16121090;19;129931;-45
2022/12/26 00:24:46;;;;;;;4.30;1.85;;;;;;;19.37;43.72;100995.19;16119738;19;129844;-51
2022/12/26 00:30:08;;;;;;;3.10;2.08;;;;;;;19.36;43.55;100996.28;16122155;19;130441;-47
2022/12/26 00:35:30;;;;;;;1.92;1.73;;;;;;;19.33;43.25;101005.09;16119819;19;130216;-48
2022/12/26 00:40:52;;;;;;;2.60;1.58;;;;;;;19.32;43.50;101022.81;16122227;19;130771;-45
2022/12/26 00:46:14;;;;;;;2.85;1.52;;;;;;;19.32;43.48;101017.28;16121020;19;130880;-51
2022/12/26 00:51:36;;;;;;;2.53;1.63;;;;;;;19.28;43.38;101006.94;16120274;19;129988;-50
2022/12/26 00:56:57;;;;;;;1.95;1.45;;;;;;;19.26;43.57;101023.81;16121927;19;128950;-50
2022/12/26 01:02:37;;;;;;;1.60;1.48;;;;;;;19.25;43.23;101038.78;16122014;19;130577;-49
2022/12/26 01:08:00;;;;;;;1.40;1.10;;;;;;;19.22;43.17;101022.63;16122030;19;129748;-47
2022/12/26 01:13:42;;;;;;;2.25;1.25;;;;;;;19.21;43.35;101032.03;16120423;19;130955;-48
2022/12/26 01:19:04;;;;;;;1.50;1.30;;;;;;;19.19;43.39;101018.41;16121853;19;130937;-49
2022/12/26 01:24:26;;;;;;;2.60;1.20;;;;;;;19.19;43.41;101028.66;16118611;19;129912;-50
2022/12/26 01:29:48;;;;;;;2.47;1.35;;;;;;;19.17;43.49;101016.97;16120973;19;129496;-47
2022/12/26 01:35:10;;;;;;;1.75;1.33;;;;;;;19.16;43.07;101024.44;16121786;19;129065;-47
2022/12/26 01:40:31;;;;;;;1.90;0.98;;;;;;;19.15;43.22;101021.91;16119868;19;129498;-49
2022/12/26 01:45:53;;;;;;;1.73;1.23;;;;;;;19.13;43.14;101046.28;16119069;19;129046;-47
2022/12/26 01:51:18;;;;;;;1.25;0.90;;;;;;;19.12;43.00;101042.69;16116466;19;130570;-47
2022/12/26 01:56:42;;;;;;;1.15;1.00;;;;;;;19.11;43.52;101040.13;16116879;19;130906;-47
2022/12/26 02:02:04;;;;;;;0.80;0.77;;;;;;;19.09;43.28;101043.16;16119995;19;129795;-48
2022/12/26 02:07:26;;;;;;;0.80;0.80;;;;;;;19.07;43.35;101032.34;16115829;19;130943;-45
2022/12/26 02:12:49;;;;;;;1.10;0.93;;;;;;;19.07;43.07;101026.78;16118255;19;130539;-48
2022/12/26 02:18:11;;;;;;;0.90;0.63;;;;;;;19.05;43.45;101028.97;16115343;19;129629;-51
2022/12/26 02:23:57;;;;;;;0.80;0.70;;;;;;;19.06;43.23;101040.88;16115318;19;131142;-50
2022/12/26 02:29:50;;;;;;;1.08;0.98;;;;;;;19.04;43.31;101046.69;16118250;19;130119;-51
2022/12/26 02:35:33;;;;;;;1.02;0.80;;;;;;;19.02;43.28;101051.63;16115371;19;129301;-46
2022/12/26 02:41:11;;;;;;;0.80;0.70;;;;;;;19.02;42.91;101057.16;16114314;19;130418;-48
2022/12/26 02:47:03;;;;;;;2.35;0.57;;;;;;;19.01;43.31;101049.94;16115337;19;130015;-45
2022/12/26 03:21:46;;;;;;;0.63;0.43;;;;;;;18.90;43.14;101034.19;16125261;19;129747;-48
2022/12/26 03:27:08;;;;;;;0.40;0.40;;;;;;;18.90;43.13;101048.03;16129555;19;130228;-46
2022/12/26 03:32:40;;;;;;;0.40;0.40;;;;;;;;;;16126460;19;130944;-49
2022/12/26 03:38:08;;;;;;;0.68;0.50;;;;;;;18.89;42.93;101049.13;16128916;19;130506;-48
2022/12/26 04:47:22;;;;;;;0.32;0.30;;;;;;;18.74;42.71;101056.03;16122973;19;128962;-51
2022/12/26 04:52:59;;;;;;;0.60;0.32;;;;;;;18.73;42.94;101053.50;16121403;19;130015;-46
2022/12/26 04:58:23;;;;;;;0.88;0.40;;;;;;;18.73;42.80;101054.34;16120483;19;130335;-47
2022/12/26 05:09:34;;;;;;;0.20;0.20;;;;;;;18.71;43.06;101053.72;16123503;19;130313;-50
2022/12/26 05:14:56;;;;;;;0.20;0.20;;;;;;;18.71;43.07;101056.50;16121280;19;129571;-49
2022/12/26 05:31:39;;;;;;;0.40;0.32;;;;;;;18.69;42.64;101030.13;16123296;19;129903;-50
2022/12/26 05:37:01;;;;;;;0.50;0.20;;;;;;;18.67;42.94;101024.84;16122004;19;130264;-47
2022/12/26 05:42:23;;;;;;;0.20;0.20;;;;;;;18.68;42.91;101053.38;16117165;19;129769;-51
2022/12/26 05:47:45;;;;;;;0.30;0.20;;;;;;;18.66;42.55;101053.63;16122576;19;130718;-50
2022/12/26 05:53:12;;;;;;;0.40;0.30;;;;;;;18.66;42.52;101070.25;16117978;19;130315;-47
2022/12/26 05:58:34;;;;;;;0.20;0.20;;;;;;;18.66;42.79;101083.25;16120387;19;129973;-48
2022/12/26 06:03:58;;;;;;;0.22;0.20;;;;;;;18.66;42.66;101081.34;16119597;19;132060;-51
2022/12/26 06:09:20;;;;;;;0.10;0.10;;;;;;;18.65;42.44;101087.97;16118802;19;129846;-47
2022/12/26 06:14:42;;;;;;;0.30;0.30;;;;;;;18.64;42.40;101072.44;16119779;19;130139;-48
2022/12/26 06:20:05;;;;;;;0.40;0.30;;;;;;;18.63;42.55;101087.38;16117688;19;129637;-49
2022/12/26 06:25:27;;;;;;;0.32;0.28;;;;;;;18.64;42.67;101091.84;16114090;19;129675;-46
2022/12/26 06:30:50;;;;;;;0.10;0.10;;;;;;;18.65;42.65;101087.13;16118133;19;131358;-51
2022/12/26 06:36:15;;;;;;;0.22;0.10;;;;;;;18.63;42.31;101084.59;16113849;19;130035;-46
2022/12/26 06:41:37;;;;;;;0.30;0.20;;;;;;;18.61;42.74;101089.53;16131474;19;130062;-47
2022/12/26 06:46:58;;;;;;;0.25;0.20;;;;;;;18.62;42.75;101099.53;16135201;19;130034;-47
2022/12/26 06:52:20;;;;;;;1.13;0.17;;;;;;;18.63;42.26;101101.22;16131179;19;129878;-47
2022/12/26 06:57:42;;;;;;;0.45;0.20;;;;;;;18.62;42.71;101102.31;16132818;19;130452;-46
2022/12/26 07:03:04;;;;;;;0.20;0.20;;;;;;;18.62;42.54;101107.84;16130433;19;130082;-51
2022/12/26 07:08:26;;;;;;;0.52;0.20;;;;;;;18.61;42.36;101100.63;16129696;19;130511;-49
2022/12/26 07:13:48;;;;;;;3.28;0.25;;;;;;;18.61;42.36;101095.06;16130574;19;131719;-51
2022/12/26 07:19:11;;;;;;;0.95;0.10;;;;;;;18.60;42.23;101091.47;16132935;19;129578;-52
2022/12/26 07:24:33;;;;;;;0.47;0.20;;;;;;;18.66;42.22;101110.97;16131100;19;129542;-50
2022/12/26 07:29:55;;;;;;;0.30;0.20;;;;;;;18.80;41.92;101104.09;16130459;19;129240;-49
2022/12/26 07:35:16;;;;;;;1.55;0.28;;;;;;;18.97;42.11;101115.28;16127187;19;129544;-51
2022/12/26 07:40:39;;;;;;;0.38;0.28;;;;;;;19.11;41.47;101109.47;16130508;19;129795;-46
2022/12/26 07:46:00;;;;;;;4.97;0.20;;;;;;;19.27;41.36;101113.41;16129727;19;129103;-49
2022/12/26 07:51:22;;;;;;;0.45;0.10;;;;;;;19.52;40.80;101126.97;16120423;19;130199;-50
2022/12/26 07:56:44;;;;;;;2.97;0.55;;;;;;;19.74;40.44;101141.00;16128774;19;130475;-50
2022/12/26 08:02:09;;;;;;;5.03;0.40;;;;;;;19.86;40.10;101149.25;16123113;19;129574;-51
2022/12/26 08:07:31;;;;;;;;;;;;;;;19.84;39.87;101135.63;16127970;19;129497;-48
2022/12/26 08:12:53;;;;;;;4.88;0.40;;;;;;;19.83;39.72;101141.41;16128900;19;130689;-46
2022/12/26 08:18:15;;;;;;;0.88;0.40;;;;;;;19.76;38.98;101135.19;16126607;19;130000;-45
2022/12/26 08:23:37;;;;;;;1.00;0.40;;;;;;;19.68;38.97;101142.84;16127838;19;130973;-47
2022/12/26 08:28:59;;;;;;;1.75;0.60;;;;;;;19.61;38.58;101164.34;16125569;19;130125;-50
2022/12/26 08:34:21;;;;;;;4.50;0.75;;;;;;;19.56;38.85;101147.59;16125715;19;136202;-49
2022/12/26 08:39:43;;;;;;;1.70;0.63;;;;;;;19.52;38.31;101155.56;16125905;19;130058;-48
2022/12/26 08:45:05;;;;;;;1.77;0.50;;;;;;;19.49;38.72;101144.09;16125873;19;130280;-46
2022/12/26 08:50:26;;;;;;;3.88;0.60;;;;;;;19.43;38.76;101145.94;16119896;19;129031;-48
2022/12/26 08:55:48;;;;;;;2.05;0.30;;;;;;;19.41;38.52;101161.16;16124512;19;131389;-49
2022/12/26 09:01:16;;;;;;;3.50;0.52;;;;;;;19.36;38.83;101162.72;16120130;19;130937;-51
2022/12/26 09:06:38;;;;;;;0.47;0.38;;;;;;;19.37;39.16;101183.84;16123769;19;130313;-46
2022/12/26 09:12:01;;;;;;;2.08;0.22;;;;;;;19.51;38.93;101208.53;16121305;19;129970;-51
2022/12/26 09:17:25;;;;;;;1.98;0.63;;;;;;;19.68;39.08;101226.13;16123439;19;129781;-50
2022/12/26 09:22:49;;;;;;;1.10;0.40;;;;;;;19.86;38.66;101220.63;16117816;19;130171;-50
2022/12/26 09:28:11;;;;;;;6.60;0.65;;;;;;;19.98;38.75;101225.00;16107293;19;129867;-49
2022/12/26 09:33:36;;;;;;;7.00;1.30;;;;;;;20.05;38.46;101232.41;16119588;19;129411;-46
2022/12/26 09:38:58;;;;;;;9.95;0.73;;;;;;;20.14;38.41;101244.78;16119932;19;129717;-49
2022/12/26 09:44:23;;;;;;;6.70;0.40;;;;;;;20.21;38.56;101270.47;16118548;19;131085;-47
2022/12/26 09:49:55;;;;;;;6.70;0.63;;;;;;;20.32;38.58;101262.31;16119809;19;129581;-46
2022/12/26 09:55:28;;;;;;;4.40;0.80;;;;;;;20.36;38.52;101277.41;16115565;19;131468;-50
2022/12/26 10:01:02;;;;;;;3.88;0.68;;;;;;;20.43;38.05;101292.00;16116419;19;129936;-47
2022/12/26 10:06:26;;;;;;;11.32;0.80;;;;;;;20.49;38.32;101290.16;16118586;19;130468;-52
2022/12/26 10:12:12;;;;;;;6.00;0.90;;;;;;;20.52;38.08;101301.63;16119817;19;130987;-49
2022/12/26 10:17:47;;;;;;;4.65;0.60;;;;;;;20.49;38.36;101307.66;16121645;19;129093;-46
2022/12/26 10:23:23;;;;;;;12.32;1.05;;;;;;;20.44;38.23;101304.78;16113480;19;131021;-48
2022/12/26 10:29:08;;;;;;;4.63;0.82;;;;;;;20.38;38.23;101300.22;16117311;19;129791;-49
2022/12/26 10:34:57;;;;;;;11.98;1.38;;;;;;;20.31;38.36;101305.13;16117397;19;130440;-48
2022/12/26 10:40:39;;;;;;;11.57;0.80;;;;;;;20.23;38.29;101304.41;16114487;19;129264;-51
2022/12/26 10:46:38;;;;;;;9.05;1.35;;;;;;;20.15;38.54;101346.47;16118093;19;129674;-48
2022/12/26 10:52:02;;;;;;;10.38;0.80;;;;;;;20.04;38.75;101362.06;16116203;19;129582;-45
2022/12/26 10:57:27;;;;;;;4.68;0.68;;;;;;;19.96;38.34;101371.59;16115652;19;130199;-47
2022/12/26 11:03:08;;;;;;;;;;;;;;;19.85;38.85;101375.25;16113486;19;130707;-49
2022/12/26 11:08:39;;;;;;;4.43;0.80;;;;;;;19.82;38.75;101386.81;16113929;19;130889;-48
2022/12/26 11:14:04;;;;;;;4.55;0.68;;;;;;;19.76;38.83;101385.88;16111483;19;130865;-51
2022/12/26 11:19:29;;;;;;;3.35;0.80;;;;;;;19.72;39.19;101392.16;16112031;19;131086;-47
2022/12/26 11:25:11;;;;;;;12.17;0.73;;;;;;;19.71;39.06;101398.78;16123628;19;130237;-50
2022/12/26 11:30:37;;;;;;;5.50;0.90;;;;;;;19.68;38.83;101392.66;16134969;19;129547;-48
2022/12/26 11:36:16;;;;;;;4.47;0.82;;;;;;;19.74;38.92;101412.19;16117690;19;130496;-51
2022/12/26 11:41:40;;;;;;;9.07;1.13;;;;;;;19.66;39.10;101411.47;16128502;19;129778;-50
2022/12/26 11:47:14;;;;;;;10.88;1.00;;;;;;;19.67;39.11;101424.28;16131075;19;130257;-48
2022/12/26 11:52:54;;;;;;;11.55;1.05;;;;;;;19.66;38.82;101432.81;16129004;19;134084;-48
2022/12/26 11:58:21;;;;;;;13.13;1.02;;;;;;;19.67;38.78;101445.63;16123358;19;130169;-50
2022/12/26 12:03:47;;;;;;;13.38;1.58;;;;;;;19.68;38.77;101453.72;16127510;19;130397;-48
2022/12/26 12:09:51;;;;;;;7.03;0.93;;;;;;;19.69;38.33;101462.88;16130615;19;129673;-48
2022/12/26 12:15:38;;;;;;;6.00;0.90;;;;;;;19.73;38.69;101466.00;16127091;19;129707;-50
2022/12/26 12:21:00;;;;;;;;;;;;;;;19.67;38.41;101454.81;16130529;19;129495;-47
2022/12/26 12:26:34;;;;;;;6.90;1.00;;;;;;;19.71;38.44;101463.50;16129042;19;132277;-51
2022/12/26 12:32:26;;;;;;;4.95;0.80;;;;;;;19.68;37.88;101461.19;16129640;19;135274;-50
2022/12/26 12:38:09;;;;;;;7.85;1.25;;;;;;;19.67;37.96;101485.34;16127518;19;129688;-52
2022/12/26 12:43:47;;;;;;;12.93;1.80;;;;;;;19.68;37.99;101486.19;16124189;19;130414;-50
2022/12/26 12:49:24;;;;;;;9.80;1.02;;;;;;;19.68;38.16;101484.25;16129189;19;130560;-49
2022/12/26 12:55:07;;;;;;;9.93;1.50;;;;;;;19.68;38.08;101489.81;16128314;19;130309;-47
2022/12/26 13:01:02;;;;;;;10.13;1.30;;;;;;;19.68;38.13;101503.69;16127201;19;129558;-52
2022/12/26 13:06:39;;;;;;;11.07;1.70;;;;;;;19.70;37.91;101489.56;16125738;19;129774;-48
2022/12/26 13:12:05;;;;;;;12.10;1.40;;;;;;;19.67;38.24;101488.13;16131148;19;134501;-48
2022/12/26 13:17:38;;;;;;;10.75;1.45;;;;;;;19.68;38.29;101481.47;16119365;19;129370;-47
2022/12/26 13:28:53;;;;;;;13.48;1.52;;;;;;;19.69;38.11;101483.16;16117297;19;130405;-49
2022/12/26 13:34:18;;;;;;;12.50;1.15;;;;;;;19.67;37.96;101490.91;16119272;19;129518;-50
2022/12/26 13:39:40;;;;;;;11.30;1.13;;;;;;;19.67;38.29;101490.03;16123274;19;129817;-52
2022/12/26 13:45:36;;;;;;;11.90;1.48;;;;;;;19.66;37.82;101491.13;16116412;19;131130;-47
2022/12/26 13:51:04;;;;;;;7.88;1.27;;;;;;;19.62;38.16;101509.34;16113908;19;129930;-48
2022/12/26 13:56:26;;;;;;;9.55;1.40;;;;;;;19.56;38.01;101533.34;16116626;19;132317;-45
2022/12/26 14:02:07;;;;;;;8.02;1.23;;;;;;;19.58;38.22;101544.22;16109621;19;129834;-50
2022/12/26 14:08:00;;;;;;;21.33;1.52;;;;;;;19.65;38.18;101565.22;16120107;19;131131;-51
2022/12/26 14:14:03;;;;;;;9.60;1.37;;;;;;;19.77;38.59;101581.91;16114377;19;130438;-51
2022/12/26 14:19:46;;;;;;;15.73;1.30;;;;;;;19.85;38.27;101591.81;16111475;19;131337;-47
2022/12/26 14:25:17;;;;;;;7.15;1.23;;;;;;;19.89;38.18;101604.16;16111576;19;129440;-52
2022/12/26 14:31:02;;;;;;;6.47;1.08;;;;;;;19.97;37.44;101600.19;16105626;19;130893;-54
2022/12/26 14:36:33;;;;;;;6.97;1.20;;;;;;;20.01;37.47;101611.69;16103097;19;129765;-53
2022/12/26 14:47:48;;;;;;;6.75;1.50;;;;;;;20.11;37.52;101640.56;16106157;19;130068;-52
2022/12/26 14:53:28;;;;;;;10.70;1.25;;;;;;;20.16;37.04;101656.53;16108446;19;129707;-53
2022/12/26 14:59:10;;;;;;;3.38;0.82;;;;;;;20.19;37.19;101664.34;16121428;19;129894;-51
2022/12/26 15:05:18;;;;;;;7.72;1.13;;;;;;;20.24;36.88;101677.56;16128715;19;130893;-48
2022/12/26 15:11:02;;;;;;;;;;;;;;;20.28;36.91;101673.19;16121631;19;129055;-48
2022/12/26 15:17:08;;;;;;;3.42;1.02;;;;;;;20.36;36.83;101692.31;16116932;19;129781;-53
2022/12/26 15:23:25;;;;;;;4.03;0.73;;;;;;;20.38;36.33;101698.44;16115946;19;130891;-52
2022/12/26 15:29:05;;;;;;;9.77;0.83;;;;;;;20.37;36.87;101710.66;16117807;19;132545;-48
2022/12/26 15:34:37;;;;;;;5.90;1.08;;;;;;;20.36;35.95;101731.22;16116512;19;130458;-52
2022/12/26 15:39:59;;;;;;;6.72;1.30;;;;;;;20.16;34.82;101736.22;16121046;19;130480;-52
2022/12/26 15:45:26;;;;;;;5.40;1.13;;;;;;;20.06;34.19;101742.38;16124812;19;130157;-52
2022/12/26 15:51:11;;;;;;;7.47;1.48;;;;;;;19.99;34.25;101751.63;16124806;19;130040;-50
2022/12/26 15:57:01;;;;;;;9.20;1.35;;;;;;;19.91;34.41;101762.19;16125987;19;130127;-49
2022/12/26 16:02:25;;;;;;;5.78;1.60;;;;;;;19.80;34.43;101772.16;16120806;19;129990;-49
2022/12/26 16:08:03;;;;;;;4.55;0.90;;;;;;;19.75;34.84;101786.75;16125138;19;129076;-52
2022/12/26 16:13:25;;;;;;;6.40;1.45;;;;;;;19.66;35.10;101788.13;16122375;19;130042;-51
2022/12/26 16:18:47;;;;;;;4.93;0.90;;;;;;;19.60;35.34;101806.56;16123384;19;129504;-48
2022/12/26 16:24:11;;;;;;;5.75;1.23;;;;;;;19.53;35.46;101811.34;16120226;19;130895;-49
2022/12/26 16:29:42;;;;;;;5.70;1.02;;;;;;;19.52;35.62;101809.66;16124386;19;130390;-50
2022/12/26 16:35:06;;;;;;;4.70;1.05;;;;;;;19.56;35.45;101805.34;16122299;19;129729;-48
2022/12/26 16:40:40;;;;;;;8.52;1.27;;;;;;;19.66;35.98;101804.78;16121977;19;130021;-50
2022/12/26 16:46:05;;;;;;;13.98;1.27;;;;;;;19.76;35.80;101812.59;16123197;19;131480;-46
2022/12/26 16:51:27;;;;;;;18.27;1.77;;;;;;;19.88;35.59;101816.28;16121253;19;129585;-48
2022/12/26 16:57:20;;;;;;;7.75;1.50;;;;;;;19.99;35.30;101821.06;16117676;19;131440;-50
2022/12/26 17:02:46;;;;;;;10.73;0.90;;;;;;;20.03;35.04;101820.59;16121486;19;137287;-49
2022/12/26 17:08:13;;;;;;;9.05;1.55;;;;;;;20.07;35.09;101838.47;16121885;19;130812;-51
2022/12/26 17:13:35;;;;;;;9.93;1.20;;;;;;;20.10;34.64;101840.78;16123595;19;129904;-52
2022/12/26 17:19:17;;;;;;;3.17;1.00;;;;;;;20.13;34.70;101832.84;16124187;19;129856;-51
2022/12/26 17:24:40;;;;;;;5.95;1.20;;;;;;;20.16;35.05;101825.97;16121730;19;129937;-53
2022/12/26 17:30:32;;;;;;;5.53;1.08;;;;;;;20.17;34.96;101835.16;16122082;19;130083;-54
2022/12/26 17:36:06;;;;;;;3.25;0.55;;;;;;;20.13;35.02;101843.13;16118679;19;129356;-53
2022/12/26 17:41:54;;;;;;;3.25;0.80;;;;;;;20.08;35.41;101859.63;16123498;19;129660;-53
2022/12/26 17:47:20;;;;;;;5.88;1.35;;;;;;;20.03;35.48;101856.72;16132414;19;130171;-53
2022/12/26 17:52:42;;;;;;;7.38;1.25;;;;;;;19.95;35.56;101864.22;16121683;19;130561;-52
2022/12/26 17:58:04;;;;;;;7.88;1.40;;;;;;;19.91;36.04;101871.34;16117557;19;129132;-51
2022/12/26 18:03:26;;;;;;;10.13;1.17;;;;;;;19.83;36.32;101875.28;16119903;19;130036;-51
2022/12/26 18:08:48;;;;;;;8.52;1.17;;;;;;;19.80;36.04;101891.56;16120431;19;130080;-53
2022/12/26 18:14:12;;;;;;;7.40;0.90;;;;;;;19.78;36.32;101890.94;16114993;19;129577;-53
2022/12/26 18:19:34;;;;;;;9.77;1.30;;;;;;;19.83;36.18;101910.53;16117493;19;129751;-50
2022/12/26 18:24:56;;;;;;;7.97;1.15;;;;;;;19.92;36.59;101914.72;16116122;19;128963;-47
2022/12/26 18:30:24;;;;;;;6.55;1.10;;;;;;;20.02;36.38;101933.63;16113480;19;129919;-50
2022/12/26 18:35:46;;;;;;;4.80;0.98;;;;;;;20.04;36.30;101939.81;16115464;19;129806;-45
2022/12/26 18:41:19;;;;;;;4.85;0.80;;;;;;;20.06;36.28;101957.09;16110198;19;129992;-51
2022/12/26 18:46:40;;;;;;;4.90;1.00;;;;;;;20.03;36.55;101959.50;16111063;19;130322;-51
2022/12/26 18:52:05;;;;;;;7.63;1.05;;;;;;;19.96;36.81;101965.91;16114025;19;129647;-49
2022/12/26 18:57:26;;;;;;;6.07;0.65;;;;;;;19.95;36.86;101964.22;16113318;19;129816;-52
2022/12/26 19:02:50;;;;;;;7.60;1.33;;;;;;;20.02;36.49;101968.91;16112991;19;130598;-51
2022/12/26 19:08:11;;;;;;;4.78;0.95;;;;;;;20.17;36.40;101963.81;16114290;19;130259;-52
2022/12/26 19:13:35;;;;;;;3.42;0.98;;;;;;;20.39;36.26;101972.50;16113594;19;131963;-49
2022/12/26 19:18:56;;;;;;;1.63;0.50;;;;;;;20.60;36.22;101975.91;16111635;19;130489;-52
2022/12/26 19:24:18;;;;;;;3.97;0.98;;;;;;;20.79;36.20;101982.31;16111960;19;130496;-49
2022/12/26 19:29:40;;;;;;;3.30;0.60;;;;;;;20.94;36.06;101992.13;16113370;19;130253;-48
2022/12/26 19:35:02;;;;;;;4.72;0.98;;;;;;;21.06;35.99;102001.38;16110601;19;131370;-47
2022/12/26 19:40:24;;;;;;;3.63;0.85;;;;;;;21.10;35.71;101999.81;16110478;19;129767;-51
2022/12/26 19:45:46;;;;;;;7.95;1.20;;;;;;;21.09;36.00;102005.63;16113586;19;130355;-52
2022/12/26 19:51:13;;;;;;;6.20;0.90;;;;;;;21.02;35.93;102012.13;16114987;19;130959;-48
2022/12/26 19:56:35;;;;;;;6.47;0.80;;;;;;;20.94;36.67;102017.16;16116638;19;131515;-50
2022/12/26 20:01:57;;;;;;;10.35;0.88;;;;;;;20.86;36.69;102012.81;16117288;19;135647;-52
2022/12/26 20:07:19;;;;;;;6.38;1.30;;;;;;;20.80;36.86;102019.28;16120984;19;129702;-50
2022/12/26 20:12:41;;;;;;;5.68;0.90;;;;;;;20.75;36.99;102022.75;16124071;19;129850;-51
2022/12/26 20:18:02;;;;;;;9.50;1.00;;;;;;;20.70;37.35;102028.16;16125262;19;130358;-48
2022/12/26 20:23:24;;;;;;;2.92;0.88;;;;;;;20.67;37.79;102017.53;16122782;19;130255;-47
2022/12/26 20:28:47;;;;;;;3.97;1.30;;;;;;;20.63;37.64;102014.34;16119390;19;129241;-50
2022/12/26 20:34:10;;;;;;;5.70;0.93;;;;;;;20.63;37.91;102031.00;16125107;19;130079;-48
2022/12/26 20:39:32;;;;;;;4.20;0.70;;;;;;;20.61;38.14;102024.88;16124536;19;129555;-53
2022/12/26 20:44:54;;;;;;;7.05;1.00;;;;;;;20.60;38.24;102034.28;16123167;19;130577;-51
2022/12/26 20:50:16;;;;;;;3.88;1.10;;;;;;;20.58;37.92;102034.50;16120583;19;130160;-47
2022/12/26 20:55:38;;;;;;;5.25;1.00;;;;;;;20.59;38.22;102038.16;16121953;19;129687;-48
2022/12/26 21:01:07;;;;;;;4.15;1.10;;;;;;;20.59;38.24;102047.31;16122317;19;131129;-52
2022/12/26 21:06:32;;;;;;;10.85;1.73;;;;;;;20.59;38.52;102047.31;16120524;19;129611;-47
2022/12/26 21:11:54;;;;;;;7.20;1.20;;;;;;;20.54;38.41;102055.53;16120966;19;129745;-48
2022/12/26 21:17:18;;;;;;;5.15;1.27;;;;;;;20.45;38.26;102068.88;16122137;19;130093;-48
2022/12/26 21:22:40;;;;;;;8.55;1.10;;;;;;;20.43;38.15;102070.19;16122017;19;130100;-49
2022/12/26 21:28:02;;;;;;;10.65;1.10;;;;;;;20.37;38.06;102083.06;16123311;19;130303;-50
2022/12/26 21:33:24;;;;;;;6.85;1.58;;;;;;;20.34;38.60;102093.78;16119196;19;130633;-50
2022/12/26 21:38:47;;;;;;;16.77;1.60;;;;;;;20.27;38.87;102089.16;16117385;19;131165;-51
2022/12/26 21:44:09;;;;;;;12.30;1.60;;;;;;;20.20;39.07;102098.66;16104685;19;129851;-49
2022/12/26 21:49:30;;;;;;;7.93;1.50;;;;;;;20.13;38.94;102109.81;16118554;19;130196;-49
2022/12/26 22:00:34;;;;;;;10.68;1.38;;;;;;;19.99;38.94;102121.03;16119053;19;131031;-50
2022/12/26 22:05:56;;;;;;;9.85;1.55;;;;;;;19.94;39.22;102118.06;16117140;19;130490;-50
2022/12/26 22:16:58;;;;;;;9.90;1.50;;;;;;;19.81;39.51;102143.19;16115638;19;130329;-49
2022/12/26 22:22:20;;;;;;;13.13;1.40;;;;;;;19.77;39.44;102144.69;16117608;19;130567;-49
2022/12/26 22:27:41;;;;;;;6.95;1.45;;;;;;;19.71;39.61;102156.69;16119747;19;129584;-51
2022/12/26 22:33:03;;;;;;;5.57;1.20;;;;;;;19.65;39.28;102159.28;16113153;19;130619;-48
2022/12/26 22:38:26;;;;;;;9.80;1.42;;;;;;;19.61;39.23;102155.25;16115196;19;130485;-48
2022/12/26 22:43:48;;;;;;;4.97;1.13;;;;;;;19.56;39.51;102160.63;16115782;19;130592;-46
2022/12/26 22:49:10;;;;;;;9.27;1.02;;;;;;;19.51;39.68;102164.06;16111896;19;129808;-50
2022/12/26 22:54:32;;;;;;;6.22;0.90;;;;;;;19.49;39.31;102170.91;16111247;19;130726;-49
2022/12/26 22:59:53;;;;;;;5.55;1.00;;;;;;;19.45;39.61;102170.50;16113098;19;129371;-47
2022/12/26 23:05:29;;;;;;;6.87;0.90;;;;;;;19.41;39.66;102171.16;16109325;19;130752;-48
2022/12/26 23:10:55;;;;;;;7.22;0.82;;;;;;;19.37;39.74;102168.84;16112499;19;130619;-48
2022/12/26 23:16:39;;;;;;;3.17;0.52;;;;;;;19.35;39.37;102182.06;16113293;19;130251;-47
2022/12/26 23:22:02;;;;;;;4.85;0.70;;;;;;;19.31;39.59;102182.75;16120794;19;130700;-51
2022/12/26 23:33:04;;;;;;;1.92;0.55;;;;;;;19.26;39.49;102202.00;16125870;19;130950;-52
2022/12/26 23:38:26;;;;;;;2.60;0.98;;;;;;;19.22;39.88;102204.31;16127272;19;129546;-53
2022/12/26 23:43:48;;;;;;;1.63;0.80;;;;;;;19.19;39.56;102205.59;16127236;19;129599;-49
2022/12/26 23:49:14;;;;;;;2.88;0.70;;;;;;;19.18;39.69;102201.13;16126341;19;129902;-48
2022/12/26 23:54:36;;;;;;;3.05;0.57;;;;;;;19.15;39.61;102197.94;16125554;19;130762;-48
2022/12/26 23:59:58;;;;;;;2.08;0.60;;;;;;;19.13;39.71;102202.84;16125908;19;129964;-49
